Maxwell, TX

12:50 AM CST on December 28, 2014 (GMT -0600)
New Braunfels Municipal | Change Station
CLOSE
Current Station
Airport
Location: New Braunfels,
Elevation: 643 ft
Nearby Weather Stations

Elev 643 ft 29.71 °N, 98.05 °W | Updated 59 minutes ago

Overcast
Overcast
45 °F
Feels Like 39 °F
N
12
Wind Variable Wind from NNE

Today
High -- | Low -- °F
--% Chance of Precip.
Yesterday
High -- | Low -- °F
Precip. -- in
7:25 AM 5:40 PM
Waxing Crescent, 44% visible
Pressure 30.21 in
Visibility 10.0 miles
Clouds Overcast 3900 ft
Windchill 39 °F
Dew Point 35 °F
Humidity 68%
Rainfall 0.02 in
Snow Depth Not available.
UV 0 out of 12
Pollen 8.80 out of 12
Air Quality Not available.
Flu Activity Not available.
METAR KBAZ 280551Z 03010KT 10SM OVC039 07/02 A3020 RMK AO2 SLP228 T00720017 10089 20072 401890072 58013

More Conditions Fewer Conditions

Pressure 30.21 in
Visibility 10.0 miles
Clouds Overcast 3900 ft
Windchill 39 °F
Dew Point 35 °F
Humidity 68%
Rainfall 0.02 in
Snow Depth Not available.
UV 0 out of 12
Pollen 8.80 out of 12
Air Quality Not available.
Flu Activity Not available.
METAR KBAZ 280551Z 03010KT 10SM OVC039 07/02 A3020 RMK AO2 SLP228 T00720017 10089 20072 401890072 58013

More Conditions Fewer Conditions

10-Day Weather Forecast

Almanac

Astronomy

Dec. 28, 2014 Rise Set
Actual Time
Civil Twilight
Nautical Twilight
Astronomical Twilight
Moon
Length of Visible Light
Length of Day
Tomorrow will be .
, % of the Moon is Illuminated

Today's Extremes

State Highs State Lows

Community

WunderPhotos

Upload Photos

1,781,208 photos uploaded!

WunderBlogs® & News

Nearby

Air Quality

  Air Quality AQ Index Pollutant
Not available.

Snow Depth

Station Depth Elevation

Earthquake Activity

City Distance Mag. Time & Date
Minimum magnitude displayed is 2.5.

Coastal Water Temperatures

Place Temperature

Nearby Weather Stations